Time;durP1;ratioP1;P1;durP2;ratioP2;P2;SDS_P1;SDS_P2;PMS_P1;PMS_P2;Temp;Humidity;BMP_temperature;BMP_pressure;BME280_temperature;BME280_humidity;BME280_pressure;Samples;Min_cycle;Max_cycle;Signal;HPM_P1;HPM_P2
2024/03/29 00:00:55;;;;;;;1.45;1.00;;;10.20;57.90;;;;;;5042906;28;20044;-63
2024/03/29 00:03:40;;;;;;;3.40;1.10;;;10.10;57.80;;;;;;5047932;28;20036;-63
2024/03/29 00:06:25;;;;;;;2.80;1.05;;;10.00;57.70;;;;;;5039567;28;20469;-63
2024/03/29 00:09:09;;;;;;;3.50;1.05;;;10.00;57.80;;;;;;5044893;28;20379;-63
2024/03/29 00:11:54;;;;;;;1.88;0.80;;;10.00;57.80;;;;;;5031987;28;20303;-64
2024/03/29 00:14:39;;;;;;;2.85;1.02;;;9.90;57.80;;;;;;5058740;28;20067;-63
2024/03/29 00:17:24;;;;;;;4.55;0.98;;;9.80;57.60;;;;;;5033548;28;20600;-64
2024/03/29 00:20:09;;;;;;;4.18;1.23;;;9.80;57.70;;;;;;5031504;28;20091;-63
2024/03/29 00:22:54;;;;;;;1.58;0.90;;;9.70;57.60;;;;;;5040327;28;20386;-62
2024/03/29 00:25:39;;;;;;;3.15;0.80;;;9.70;57.70;;;;;;5031681;28;20587;-63
2024/03/29 00:28:24;;;;;;;1.17;0.60;;;9.60;57.60;;;;;;5032227;28;20082;-64
2024/03/29 00:31:10;;;;;;;3.28;0.85;;;9.60;57.70;;;;;;5035481;28;20060;-64
2024/03/29 00:33:55;;;;;;;3.42;1.02;;;9.50;57.50;;;;;;5030842;28;20048;-63
2024/03/29 00:36:39;;;;;;;2.45;0.90;;;9.50;57.60;;;;;;5028015;28;20032;-64
2024/03/29 00:39:24;;;;;;;2.40;0.82;;;9.50;57.60;;;;;;5036382;28;20140;-64
2024/03/29 00:42:09;;;;;;;2.92;0.98;;;9.40;57.50;;;;;;5028711;28;20036;-64
2024/03/29 00:44:54;;;;;;;2.42;1.10;;;9.40;57.60;;;;;;5044637;28;20039;-64
2024/03/29 00:47:39;;;;;;;1.50;0.75;;;9.30;57.40;;;;;;5031220;28;20099;-63
2024/03/29 00:50:24;;;;;;;2.72;0.77;;;9.30;57.50;;;;;;5036407;28;20097;-62
2024/03/29 00:53:09;;;;;;;1.92;0.77;;;9.30;57.50;;;;;;5046624;28;20075;-62
2024/03/29 00:55:54;;;;;;;1.85;1.20;;;9.20;57.40;;;;;;5031964;28;20511;-63
2024/03/29 00:58:38;;;;;;;3.10;0.60;;;9.20;57.40;;;;;;5027351;28;20079;-63
2024/03/29 01:01:23;;;;;;;1.48;0.70;;;9.10;57.30;;;;;;5034232;28;20411;-62
2024/03/29 01:04:08;;;;;;;2.75;1.35;;;9.10;57.40;;;;;;5031637;28;20048;-63
2024/03/29 01:06:53;;;;;;;1.77;0.70;;;9.10;57.50;;;;;;5024087;28;20090;-62
2024/03/29 01:09:37;;;;;;;1.67;0.70;;;9.00;57.30;;;;;;5026906;28;20070;-61
2024/03/29 01:12:22;;;;;;;2.97;0.82;;;9.00;57.40;;;;;;5029602;28;20087;-63
2024/03/29 01:15:07;;;;;;;2.13;0.68;;;9.00;57.40;;;;;;5034118;28;20243;-62
2024/03/29 01:17:52;;;;;;;3.25;1.10;;;9.00;57.50;;;;;;5031340;28;20040;-62
2024/03/29 01:20:37;;;;;;;2.28;0.70;;;8.90;57.40;;;;;;5036685;28;20086;-62
2024/03/29 01:23:21;;;;;;;1.33;0.60;;;8.90;57.40;;;;;;5029705;28;20122;-63
2024/03/29 01:26:11;;;;;;;1.38;0.75;;;8.90;57.50;;;;;;5033561;28;20068;-63
2024/03/29 01:28:57;;;;;;;0.77;0.60;;;8.90;57.50;;;;;;5035108;28;20191;-62
2024/03/29 01:31:41;;;;;;;0.90;0.77;;;8.80;57.40;;;;;;5030746;28;20079;-62
2024/03/29 01:34:26;;;;;;;4.90;0.90;;;8.80;57.40;;;;;;5030243;28;20036;-63
2024/03/29 01:37:11;;;;;;;3.63;0.95;;;8.80;57.40;;;;;;5052765;28;20569;-62
2024/03/29 01:39:56;;;;;;;1.77;0.75;;;8.80;57.40;;;;;;5034502;28;20102;-63
2024/03/29 01:42:41;;;;;;;1.67;0.70;;;8.90;57.70;;;;;;5033092;28;20047;-62
2024/03/29 01:45:26;;;;;;;2.60;0.90;;;8.80;57.50;;;;;;5031836;28;20450;-63
2024/03/29 01:48:10;;;;;;;3.72;1.20;;;8.90;58.30;;;;;;5029502;28;20152;-64
2024/03/29 01:51:00;;;;;;;3.78;0.98;;;8.90;57.70;;;;;;5030292;28;20739;-66
2024/03/29 01:53:47;;;;;;;2.15;0.65;;;8.90;57.70;;;;;;5031019;28;20065;-64
2024/03/29 01:56:33;;;;;;;3.08;0.95;;;8.90;57.70;;;;;;5034068;28;20557;-63
2024/03/29 01:59:19;;;;;;;2.35;0.63;;;8.90;57.70;;;;;;5048834;28;20110;-63
2024/03/29 02:02:07;;;;;;;2.78;1.25;;;9.00;57.90;;;;;;5032011;28;20067;-64
2024/03/29 02:04:53;;;;;;;1.85;0.95;;;9.00;57.90;;;;;;5033522;28;20040;-62
2024/03/29 02:07:38;;;;;;;1.58;0.70;;;9.00;57.90;;;;;;5033685;28;20428;-64
2024/03/29 02:10:24;;;;;;;3.35;0.70;;;9.00;57.90;;;;;;5039931;28;20043;-63
2024/03/29 02:13:08;;;;;;;1.90;0.75;;;9.00;57.90;;;;;;5034618;28;20047;-63
2024/03/29 02:15:53;;;;;;;4.53;0.95;;;9.00;57.90;;;;;;5035678;28;20418;-64
2024/03/29 02:18:38;;;;;;;2.50;0.93;;;9.10;58.10;;;;;;5027979;28;20298;-64
2024/03/29 02:21:22;;;;;;;1.20;0.70;;;9.10;58.20;;;;;;5030250;28;20522;-62
2024/03/29 02:24:08;;;;;;;2.80;0.90;;;9.10;58.20;;;;;;5029056;28;20098;-63
2024/03/29 02:26:56;;;;;;;2.33;0.98;;;9.10;58.20;;;;;;5031049;28;20055;-63
2024/03/29 02:29:43;;;;;;;2.42;1.77;;;9.10;58.20;;;;;;5037492;28;20064;-62
2024/03/29 02:32:28;;;;;;;3.25;1.02;;;9.10;58.20;;;;;;5061586;28;20193;-65
2024/03/29 02:35:14;;;;;;;5.28;1.48;;;9.10;58.20;;;;;;5037970;28;20115;-63
2024/03/29 02:38:03;;;;;;;3.00;0.85;;;9.10;58.30;;;;;;5034791;28;20040;-63
2024/03/29 02:40:48;;;;;;;1.85;0.80;;;9.10;58.30;;;;;;5047035;28;20654;-63
2024/03/29 02:43:32;;;;;;;4.05;1.27;;;9.20;58.50;;;;;;5032975;28;20046;-63
2024/03/29 02:46:17;;;;;;;3.03;1.25;;;9.20;58.50;;;;;;5061808;28;20132;-63
2024/03/29 02:49:02;;;;;;;3.03;1.02;;;9.20;58.50;;;;;;5059882;28;20048;-63
2024/03/29 02:51:51;;;;;;;3.30;0.80;;;9.20;58.50;;;;;;5032087;28;20064;-63
2024/03/29 02:54:36;;;;;;;4.22;1.10;;;9.30;58.70;;;;;;5032074;28;20048;-63
2024/03/29 02:57:21;;;;;;;3.25;0.88;;;9.20;58.50;;;;;;5033076;28;20047;-63
2024/03/29 03:00:09;;;;;;;2.95;1.15;;;9.30;58.70;;;;;;5037087;28;20103;-63
2024/03/29 03:02:55;;;;;;;5.30;1.05;;;9.30;58.70;;;;;;5033074;28;20048;-63
2024/03/29 03:05:39;;;;;;;5.22;1.25;;;9.30;58.70;;;;;;5032076;28;20610;-63
2024/03/29 03:11:28;;;;;;;3.13;0.88;;;9.30;58.80;;;;;;5027957;28;20533;-62
2024/03/29 03:14:15;;;;;;;2.15;0.82;;;9.40;58.90;;;;;;5045446;28;20048;-62
2024/03/29 03:17:00;;;;;;;3.22;0.90;;;9.30;58.70;;;;;;5026253;28;20047;-62
2024/03/29 03:19:45;;;;;;;2.15;0.95;;;9.40;59.00;;;;;;5030222;28;20150;-62
2024/03/29 03:22:29;;;;;;;4.03;0.95;;;9.40;59.00;;;;;;5026983;28;20101;-63
2024/03/29 03:25:14;;;;;;;1.98;0.65;;;9.40;59.00;;;;;;5028347;28;20095;-61
2024/03/29 03:27:59;;;;;;;0.93;0.70;;;9.40;59.00;;;;;;5039537;28;20099;-61
2024/03/29 03:30:46;;;;;;;2.83;1.17;;;9.40;59.00;;;;;;5035028;28;20344;-62
2024/03/29 03:33:31;;;;;;;1.50;0.60;;;9.50;59.20;;;;;;5036212;28;20093;-62
2024/03/29 03:36:17;;;;;;;1.40;0.75;;;9.50;59.20;;;;;;5032550;28;20130;-63
2024/03/29 03:39:02;;;;;;;1.65;0.60;;;9.50;59.20;;;;;;5062525;28;20063;-62
2024/03/29 03:41:47;;;;;;;2.55;0.60;;;9.50;59.20;;;;;;5056797;28;20174;-62
2024/03/29 03:44:31;;;;;;;1.20;0.70;;;9.50;59.20;;;;;;5032078;28;20044;-62
2024/03/29 03:47:16;;;;;;;2.92;0.70;;;9.50;59.20;;;;;;5035213;28;20221;-62
2024/03/29 03:50:01;;;;;;;2.78;1.15;;;9.50;59.20;;;;;;5035340;28;20126;-62
2024/03/29 03:52:46;;;;;;;2.30;0.85;;;9.50;59.80;;;;;;5028779;28;20422;-62
2024/03/29 03:55:37;;;;;;;1.48;0.50;;;9.50;59.20;;;;;;5030913;28;20090;-62
2024/03/29 03:58:22;;;;;;;2.30;0.60;;;9.60;59.40;;;;;;5028381;28;20117;-63
2024/03/29 04:01:07;;;;;;;3.97;1.58;;;9.60;59.40;;;;;;5029329;28;20052;-62
2024/03/29 04:03:51;;;;;;;3.85;0.60;;;9.60;59.40;;;;;;5036324;28;20089;-62
2024/03/29 04:06:35;;;;;;;1.50;0.40;;;9.60;59.40;;;;;;5023656;28;20044;-62
2024/03/29 04:09:21;;;;;;;3.05;0.75;;;9.60;59.40;;;;;;5062203;28;20048;-62
2024/03/29 04:12:07;;;;;;;2.15;0.43;;;9.60;59.40;;;;;;5055075;28;20341;-63
2024/03/29 04:14:51;;;;;;;1.48;0.50;;;9.60;59.40;;;;;;5035531;28;20428;-62
2024/03/29 04:17:36;;;;;;;3.17;0.70;;;9.60;59.40;;;;;;5044567;28;20047;-63
2024/03/29 04:20:21;;;;;;;2.47;1.10;;;9.60;59.40;;;;;;5030412;28;20043;-62
2024/03/29 04:23:06;;;;;;;2.50;0.57;;;9.70;59.60;;;;;;5031100;28;20271;-62
2024/03/29 04:25:55;;;;;;;3.72;1.15;;;9.70;59.60;;;;;;5033500;28;20116;-62
2024/03/29 04:28:39;;;;;;;2.50;0.65;;;9.70;59.70;;;;;;5028767;28;20320;-67
2024/03/29 04:31:24;;;;;;;1.65;0.60;;;9.70;59.60;;;;;;5028912;28;20112;-62
2024/03/29 04:34:09;;;;;;;1.75;0.60;;;9.70;59.50;;;;;;5033609;28;20040;-62
2024/03/29 04:36:54;;;;;;;2.17;0.73;;;9.70;59.50;;;;;;5027962;28;20099;-62
2024/03/29 04:39:38;;;;;;;2.42;0.93;;;9.70;59.50;;;;;;5022748;28;20343;-62
2024/03/29 04:42:23;;;;;;;1.52;1.05;;;9.70;59.50;;;;;;5028861;28;20033;-62
2024/03/29 04:45:08;;;;;;;1.08;0.50;;;9.70;59.50;;;;;;5036307;28;20093;-62
2024/03/29 04:47:53;;;;;;;1.20;0.45;;;9.70;59.50;;;;;;5030788;28;20612;-63
2024/03/29 04:50:39;;;;;;;2.47;0.70;;;9.70;59.60;;;;;;5022588;28;20099;-63
2024/03/29 04:53:26;;;;;;;1.35;0.50;;;9.70;59.60;;;;;;5027502;28;20032;-65
2024/03/29 04:56:11;;;;;;;2.45;0.88;;;9.70;59.60;;;;;;5029293;28;20211;-62
2024/03/29 04:58:56;;;;;;;1.92;0.70;;;9.70;59.50;;;;;;5026343;28;20106;-63
2024/03/29 05:01:43;;;;;;;1.17;0.73;;;9.70;59.60;;;;;;5056922;28;20269;-63
2024/03/29 05:04:29;;;;;;;4.05;0.70;;;9.70;59.60;;;;;;5029336;28;20036;-62
2024/03/29 05:07:13;;;;;;;3.35;0.70;;;9.70;59.60;;;;;;5024946;28;20092;-63
2024/03/29 05:09:59;;;;;;;1.70;0.70;;;9.70;59.60;;;;;;5031724;28;20330;-62
2024/03/29 05:12:44;;;;;;;2.40;0.57;;;9.70;59.60;;;;;;5031578;28;20040;-62
2024/03/29 05:15:29;;;;;;;4.63;1.05;;;9.70;59.60;;;;;;5029678;28;20071;-63
2024/03/29 05:18:17;;;;;;;3.67;0.73;;;9.70;59.60;;;;;;5026729;28;20103;-63
2024/03/29 05:21:02;;;;;;;3.83;0.90;;;9.80;59.80;;;;;;5037126;28;20043;-63
2024/03/29 05:23:47;;;;;;;2.92;1.63;;;9.80;59.90;;;;;;5041085;28;20079;-68
2024/03/29 05:26:32;;;;;;;2.75;0.50;;;9.80;59.90;;;;;;5042570;28;20065;-63
2024/03/29 05:29:19;;;;;;;3.22;0.95;;;9.80;59.90;;;;;;5038202;28;20118;-61
2024/03/29 05:32:05;;;;;;;4.28;0.88;;;9.80;59.90;;;;;;5026227;28;20048;-62
2024/03/29 05:34:51;;;;;;;4.20;0.70;;;9.80;59.90;;;;;;5026375;28;20074;-62
2024/03/29 05:37:37;;;;;;;2.22;0.82;;;9.80;59.90;;;;;;5023208;28;20036;-64
2024/03/29 05:40:27;;;;;;;4.53;0.95;;;9.80;60.00;;;;;;5029090;28;20734;-65
2024/03/29 05:43:11;;;;;;;4.18;0.77;;;9.90;60.20;;;;;;5032283;28;20181;-64
2024/03/29 05:45:56;;;;;;;3.80;1.13;;;9.80;60.00;;;;;;5027023;28;20052;-65
2024/03/29 05:48:41;;;;;;;5.45;1.38;;;9.80;60.10;;;;;;5043827;28;20473;-63
2024/03/29 05:51:26;;;;;;;5.60;1.00;;;9.90;60.30;;;;;;5031320;28;20032;-63
2024/03/29 05:54:11;;;;;;;4.22;1.70;;;9.90;60.30;;;;;;5026313;28;20299;-63
2024/03/29 05:56:55;;;;;;;2.38;0.70;;;9.90;60.30;;;;;;5031849;28;20739;-64
2024/03/29 05:59:44;;;;;;;4.05;0.88;;;9.90;60.30;;;;;;5028418;28;20064;-63
2024/03/29 06:02:28;;;;;;;6.43;1.48;;;9.90;60.40;;;;;;5027986;28;20055;-64
2024/03/29 06:05:13;;;;;;;4.88;1.10;;;9.90;60.40;;;;;;5023930;28;20091;-63
2024/03/29 06:07:57;;;;;;;3.58;0.70;;;9.90;60.40;;;;;;5055139;28;20266;-62
2024/03/29 06:10:42;;;;;;;4.97;1.45;;;9.90;60.40;;;;;;5061586;28;20470;-67
2024/03/29 06:17:22;;;;;;;4.38;0.98;;;9.90;60.40;;;;;;5025288;28;20474;-67
2024/03/29 06:19:41;;;;;;;3.92;0.60;;;9.90;60.40;;;;;;5028786;28;20047;-65
2024/03/29 06:22:29;;;;;;;1.88;0.80;;;9.90;60.40;;;;;;5032624;28;20353;-64
2024/03/29 06:25:15;;;;;;;5.68;1.20;;;10.00;60.70;;;;;;5025180;28;20475;-67
2024/03/29 06:28:00;;;;;;;4.30;1.27;;;10.00;60.60;;;;;;5021156;28;20102;-66
2024/03/29 06:30:48;;;;;;;4.50;1.55;;;10.00;60.70;;;;;;5031933;28;20039;-64
2024/03/29 06:33:35;;;;;;;3.35;1.20;;;10.00;60.70;;;;;;5033427;28;20574;-65
2024/03/29 06:36:20;;;;;;;3.97;1.13;;;10.00;60.80;;;;;;5026075;28;20048;-65
2024/03/29 06:39:04;;;;;;;4.65;1.42;;;10.00;60.80;;;;;;5033640;28;20102;-65
2024/03/29 06:41:49;;;;;;;3.95;1.20;;;10.00;60.80;;;;;;5031583;28;20102;-65
2024/03/29 06:44:35;;;;;;;4.90;0.90;;;10.00;60.80;;;;;;5034937;28;20035;-65
2024/03/29 06:47:19;;;;;;;3.33;0.80;;;10.10;61.10;;;;;;5024663;28;20059;-65
2024/03/29 06:50:05;;;;;;;4.03;1.13;;;10.10;61.00;;;;;;5029962;28;20044;-66
2024/03/29 06:52:50;;;;;;;5.25;1.20;;;10.10;61.00;;;;;;5029665;28;20407;-65
2024/03/29 06:55:36;;;;;;;5.88;1.95;;;10.10;61.00;;;;;;5034443;28;20086;-66
2024/03/29 06:58:23;;;;;;;3.95;1.35;;;10.10;61.00;;;;;;5041843;28;20082;-65
2024/03/29 07:01:08;;;;;;;3.55;1.10;;;10.10;61.00;;;;;;5044070;28;20712;-65
2024/03/29 07:03:53;;;;;;;4.82;0.98;;;10.10;61.00;;;;;;5035775;28;20043;-65
2024/03/29 07:06:39;;;;;;;4.78;1.10;;;10.20;61.20;;;;;;5020524;28;20128;-65
2024/03/29 07:09:23;;;;;;;5.78;1.17;;;10.20;61.20;;;;;;5028083;28;20139;-65
2024/03/29 07:12:09;;;;;;;4.93;1.50;;;10.30;61.50;;;;;;5033831;28;20068;-67
2024/03/29 07:14:54;;;;;;;7.63;1.27;;;10.40;61.50;;;;;;5031883;28;20043;-65
2024/03/29 07:17:40;;;;;;;4.80;1.10;;;10.50;61.50;;;;;;5028709;28;20044;-65
2024/03/29 07:20:26;;;;;;;3.65;1.45;;;10.60;61.50;;;;;;5026008;28;20146;-66
2024/03/29 07:23:11;;;;;;;3.50;0.93;;;10.60;61.30;;;;;;5029667;28;20106;-65
2024/03/29 07:26:04;;;;;;;4.03;1.38;;;10.70;61.30;;;;;;5027403;28;20048;-66
2024/03/29 07:28:48;;;;;;;2.20;0.98;;;10.80;61.40;;;;;;5032145;28;20585;-66
2024/03/29 07:31:33;;;;;;;2.78;1.00;;;10.80;61.30;;;;;;5033023;28;20552;-66
2024/03/29 07:34:19;;;;;;;3.47;1.30;;;10.90;61.40;;;;;;5031194;28;20087;-69
2024/03/29 07:37:03;;;;;;;5.28;1.88;;;10.90;61.40;;;;;;5035667;28;20718;-65
2024/03/29 07:39:48;;;;;;;4.85;1.20;;;10.90;61.30;;;;;;5042578;28;20177;-64
2024/03/29 07:42:33;;;;;;;5.78;1.50;;;11.00;61.50;;;;;;5051551;28;20060;-64
2024/03/29 07:45:18;;;;;;;2.85;1.00;;;11.00;61.40;;;;;;5045086;28;20149;-65
2024/03/29 07:48:06;;;;;;;5.47;1.38;;;11.10;61.60;;;;;;5039444;28;20536;-65
2024/03/29 07:50:51;;;;;;;2.80;0.82;;;11.10;62.10;;;;;;5034612;28;20082;-65
2024/03/29 07:53:36;;;;;;;4.47;1.40;;;11.20;61.70;;;;;;5032704;28;20036;-64
2024/03/29 07:56:21;;;;;;;5.53;1.40;;;11.20;61.60;;;;;;5035367;28;20071;-65
2024/03/29 07:59:06;;;;;;;1.52;0.80;;;11.30;62.30;;;;;;5026166;28;20645;-65
2024/03/29 08:01:54;;;;;;;4.45;1.00;;;11.40;61.80;;;;;;5034688;28;20035;-65
2024/03/29 08:04:42;;;;;;;4.82;1.00;;;11.50;61.90;;;;;;5028030;28;20266;-65
2024/03/29 08:07:28;;;;;;;4.05;1.33;;;11.60;62.00;;;;;;5045169;28;20156;-65
2024/03/29 08:10:13;;;;;;;3.50;1.00;;;11.60;61.90;;;;;;5036134;28;20170;-65
2024/03/29 08:13:00;;;;;;;6.50;2.85;;;11.70;62.00;;;;;;5056534;28;20229;-64
2024/03/29 08:15:44;;;;;;;8.57;2.60;;;11.80;62.10;;;;;;5043904;28;20090;-63
2024/03/29 08:18:31;;;;;;;7.07;1.95;;;11.90;62.40;;;;;;5035855;28;20113;-65
2024/03/29 08:21:16;;;;;;;5.93;1.80;;;12.00;62.60;;;;;;5046908;28;20039;-66
2024/03/29 08:24:01;;;;;;;7.35;1.80;;;12.00;62.60;;;;;;5034747;28;20044;-64
2024/03/29 08:26:47;;;;;;;12.98;3.22;;;12.10;62.90;;;;;;5026900;28;20051;-64
2024/03/29 08:29:32;;;;;;;11.32;2.80;;;12.10;62.90;;;;;;5040753;28;20115;-65
2024/03/29 08:32:16;;;;;;;6.65;2.40;;;12.10;63.00;;;;;;5043616;28;20048;-67
2024/03/29 08:35:02;;;;;;;7.57;2.55;;;12.10;63.30;;;;;;5031092;28;20091;-67
2024/03/29 08:37:47;;;;;;;8.18;2.70;;;12.20;63.60;;;;;;5033794;28;20044;-67
2024/03/29 08:40:34;;;;;;;7.25;2.40;;;12.30;63.80;;;;;;5043812;28;20123;-67
2024/03/29 08:43:19;;;;;;;8.18;1.90;;;12.40;63.90;;;;;;5041119;28;20879;-67
2024/03/29 08:46:04;;;;;;;3.45;2.63;;;12.50;64.20;;;;;;5033269;28;20095;-67
2024/03/29 08:48:49;;;;;;;5.60;2.10;;;12.50;63.90;;;;;;5040997;28;20090;-68
2024/03/29 08:51:34;;;;;;;7.80;2.30;;;12.60;63.90;;;;;;5030227;28;20587;-67
2024/03/29 08:54:18;;;;;;;4.57;2.15;;;12.60;63.70;;;;;;5033892;28;20098;-67
2024/03/29 08:57:03;;;;;;;5.85;1.60;;;12.70;63.80;;;;;;5038190;28;20584;-67
2024/03/29 08:59:48;;;;;;;5.32;2.35;;;12.70;63.60;;;;;;5035469;28;20123;-67
2024/03/29 09:02:34;;;;;;;7.28;2.53;;;12.80;63.60;;;;;;5035154;28;20099;-66
2024/03/29 09:05:19;;;;;;;6.68;2.00;;;12.80;63.50;;;;;;5037540;28;20105;-67
2024/03/29 09:08:04;;;;;;;3.40;1.40;;;12.90;63.60;;;;;;5041884;28;20054;-67
2024/03/29 09:10:48;;;;;;;3.85;1.65;;;13.00;63.60;;;;;;5031791;28;20044;-66
2024/03/29 09:13:39;;;;;;;3.67;1.58;;;13.10;63.60;;;;;;5036660;28;20342;-66
2024/03/29 09:16:44;;;;;;;5.40;1.60;;;13.20;63.50;;;;;;5059389;28;20044;-67
2024/03/29 09:19:31;;;;;;;5.75;1.50;;;13.30;63.40;;;;;;5045095;28;20385;-68
2024/03/29 09:22:15;;;;;;;4.07;1.70;;;13.30;63.30;;;;;;5027204;28;20115;-67
2024/03/29 09:25:00;;;;;;;6.35;2.13;;;13.40;63.40;;;;;;5035243;28;20056;-69
2024/03/29 09:27:48;;;;;;;3.42;1.13;;;13.40;63.30;;;;;;5054939;28;20089;-72
2024/03/29 09:30:33;;;;;;;6.18;2.15;;;13.50;63.40;;;;;;5033728;28;20043;-68
2024/03/29 09:33:18;;;;;;;2.47;1.40;;;13.50;63.30;;;;;;5034063;28;20044;-71
2024/03/29 09:36:03;;;;;;;5.38;1.38;;;13.50;63.20;;;;;;5048616;28;20424;-73
2024/03/29 09:38:48;;;;;;;4.95;1.30;;;13.50;63.10;;;;;;5033620;28;20043;-70
2024/03/29 09:41:37;;;;;;;2.53;1.02;;;13.60;63.20;;;;;;5036072;28;20040;-73
2024/03/29 09:44:24;;;;;;;3.35;1.23;;;13.60;63.10;;;;;;5050596;28;20059;-72
2024/03/29 09:47:11;;;;;;;2.85;1.00;;;13.60;63.00;;;;;;5042013;28;20390;-74
2024/03/29 09:49:58;;;;;;;3.25;1.00;;;13.60;62.90;;;;;;5043905;28;20122;-67
2024/03/29 09:52:44;;;;;;;2.80;0.85;;;13.60;62.80;;;;;;5023806;28;20272;-67
2024/03/29 09:55:29;;;;;;;3.60;1.10;;;13.70;63.00;;;;;;5037149;28;20826;-68
2024/03/29 09:58:14;;;;;;;2.03;1.10;;;13.70;62.80;;;;;;5061207;28;20107;-69
2024/03/29 10:00:59;;;;;;;4.72;1.40;;;13.80;62.90;;;;;;5042031;28;20463;-74
2024/03/29 10:03:50;;;;;;;4.35;0.93;;;13.80;62.70;;;;;;5039999;28;20044;-70
2024/03/29 10:06:38;;;;;;;3.30;1.30;;;13.90;62.80;;;;;;5065176;28;20351;-71
2024/03/29 10:09:27;;;;;;;1.80;0.82;;;13.90;62.70;;;;;;5040285;28;20036;-74
2024/03/29 10:12:12;;;;;;;3.63;0.90;;;14.00;62.80;;;;;;5033819;28;20051;-73
2024/03/29 10:15:08;;;;;;;4.53;1.40;;;14.00;62.60;;;;;;5042325;28;20203;-71
2024/03/29 10:17:53;;;;;;;4.85;0.90;;;14.10;62.70;;;;;;5036232;28;20126;-71
2024/03/29 10:20:41;;;;;;;2.75;0.65;;;14.10;62.60;;;;;;5025960;28;20166;-71
2024/03/29 10:23:30;;;;;;;3.38;1.00;;;14.10;62.50;;;;;;5039437;28;20068;-70
2024/03/29 10:26:15;;;;;;;2.58;0.80;;;14.10;62.50;;;;;;5035012;28;20106;-69
2024/03/29 10:29:04;;;;;;;3.53;1.17;;;14.10;62.40;;;;;;5032663;28;20055;-73
2024/03/29 10:31:51;;;;;;;1.55;0.70;;;14.10;62.40;;;;;;5045907;28;20127;-70
2024/03/29 10:34:37;;;;;;;2.55;0.77;;;14.10;62.30;;;;;;5038019;28;20044;-69
2024/03/29 10:37:32;;;;;;;4.05;2.00;;;14.10;62.30;;;;;;5038870;28;20044;-69
2024/03/29 10:40:18;;;;;;;2.20;0.70;;;14.20;62.30;;;;;;5032637;28;20679;-68
2024/03/29 10:43:09;;;;;;;1.65;0.75;;;14.20;62.30;;;;;;5038626;28;20647;-69
2024/03/29 10:45:59;;;;;;;2.45;0.68;;;14.20;62.20;;;;;;5045738;28;20079;-69
2024/03/29 10:48:45;;;;;;;1.88;0.82;;;14.20;62.10;;;;;;5040785;28;20055;-70
2024/03/29 10:51:31;;;;;;;3.55;1.95;;;14.20;62.00;;;;;;5049177;28;20095;-69
2024/03/29 10:54:19;;;;;;;3.05;0.90;;;14.30;62.10;;;;;;5028541;28;20407;-68
2024/03/29 10:57:12;;;;;;;3.08;0.80;;;14.30;62.00;;;;;;5040399;28;20133;-70
2024/03/29 11:00:11;;;;;;;1.40;0.40;;;14.30;62.50;;;;;;5049564;28;20101;-68
2024/03/29 11:03:22;;;;;;;0.77;0.43;;;14.30;61.90;;;;;;5047036;28;20585;-68
2024/03/29 11:06:06;;;;;;;1.60;0.70;;;14.40;62.00;;;;;;5038521;28;20523;-68
2024/03/29 11:08:54;;;;;;;3.95;1.13;;;14.40;61.90;;;;;;5031290;28;20582;-68
2024/03/29 11:11:44;;;;;;;2.80;0.75;;;14.40;61.80;;;;;;5044690;28;20509;-66
2024/03/29 11:14:42;;;;;;;2.97;0.90;;;14.50;61.80;;;;;;5040596;28;20122;-68
2024/03/29 11:17:30;;;;;;;1.70;0.85;;;14.50;61.60;;;;;;5030851;28;20101;-68
2024/03/29 11:20:18;;;;;;;3.13;0.73;;;14.70;61.80;;;;;;5045413;28;20562;-69
2024/03/29 11:23:09;;;;;;;2.13;0.90;;;14.70;61.60;;;;;;5043362;28;20079;-68
2024/03/29 11:25:57;;;;;;;2.92;0.63;;;14.80;61.60;;;;;;5020798;28;20680;-66
2024/03/29 11:28:52;;;;;;;2.40;0.60;;;14.80;61.40;;;;;;5040696;28;20299;-66
2024/03/29 11:31:38;;;;;;;2.75;0.65;;;14.90;61.50;;;;;;5025760;28;20072;-68
2024/03/29 11:34:24;;;;;;;2.67;0.70;;;14.90;61.30;;;;;;5046959;28;20550;-66
2024/03/29 11:37:13;;;;;;;5.95;1.60;;;15.00;61.40;;;;;;5053609;28;20063;-61
2024/03/29 11:40:01;;;;;;;8.27;1.73;;;15.00;61.20;;;;;;5040243;28;20204;-61
2024/03/29 11:42:47;;;;;;;9.43;2.55;;;15.00;60.90;;;;;;5034949;28;20102;-61
2024/03/29 11:45:34;;;;;;;8.25;1.55;;;15.00;60.80;;;;;;5036723;28;20433;-61
2024/03/29 11:48:25;;;;;;;11.63;2.10;;;15.00;60.70;;;;;;5033239;28;20040;-61
2024/03/29 11:51:14;;;;;;;7.88;1.70;;;15.00;60.50;;;;;;5036343;28;20091;-61
2024/03/29 11:54:00;;;;;;;9.75;1.92;;;15.00;60.50;;;;;;5060462;28;20533;-62
2024/03/29 11:56:45;;;;;;;6.28;1.52;;;15.00;60.20;;;;;;5042107;28;20068;-62
2024/03/29 11:59:30;;;;;;;9.02;2.20;;;15.10;60.20;;;;;;5039698;28;20183;-62
2024/03/29 12:02:15;;;;;;;9.65;1.80;;;15.20;60.00;;;;;;5060459;28;20047;-62
2024/03/29 12:04:59;;;;;;;5.85;1.77;;;15.30;59.80;;;;;;5038155;28;20047;-65
2024/03/29 12:07:46;;;;;;;9.95;3.28;;;15.30;59.70;;;;;;5038704;28;20048;-62
2024/03/29 12:10:30;;;;;;;10.52;1.65;;;15.30;59.50;;;;;;5043062;28;20047;-63
2024/03/29 12:13:17;;;;;;;8.13;1.70;;;15.40;59.50;;;;;;5046201;28;20047;-63
2024/03/29 12:16:03;;;;;;;9.23;2.45;;;15.50;59.50;;;;;;5044605;28;20044;-62
2024/03/29 12:18:48;;;;;;;12.75;1.85;;;15.50;59.40;;;;;;5045403;28;20258;-63
2024/03/29 12:21:33;;;;;;;8.93;1.70;;;15.60;59.40;;;;;;5039192;28;20063;-63
2024/03/29 12:24:18;;;;;;;7.57;1.38;;;15.70;59.40;;;;;;5031444;28;20055;-64
2024/03/29 12:27:04;;;;;;;6.65;1.92;;;15.70;59.20;;;;;;5044151;28;20200;-64
2024/03/29 12:29:48;;;;;;;6.35;1.60;;;15.80;59.30;;;;;;5028675;28;20035;-63
2024/03/29 12:32:34;;;;;;;7.82;1.48;;;15.80;59.20;;;;;;5028271;28;20090;-64
2024/03/29 12:35:21;;;;;;;5.50;1.42;;;15.80;59.20;;;;;;5038007;28;20056;-64
2024/03/29 12:38:07;;;;;;;6.72;1.48;;;15.80;59.00;;;;;;5047279;28;20131;-66
2024/03/29 12:40:53;;;;;;;5.70;1.55;;;15.80;59.00;;;;;;5036598;28;20110;-65
2024/03/29 12:43:37;;;;;;;6.88;1.33;;;15.80;58.90;;;;;;5037978;28;20562;-64
2024/03/29 12:46:22;;;;;;;6.75;1.38;;;15.90;59.10;;;;;;5028908;28;20328;-65
2024/03/29 12:49:11;;;;;;;2.55;1.17;;;16.00;59.20;;;;;;5050883;28;20536;-65
2024/03/29 12:51:56;;;;;;;4.25;1.60;;;16.20;59.40;;;;;;5062494;28;20091;-64
2024/03/29 12:54:41;;;;;;;8.18;1.52;;;16.40;59.60;;;;;;5063364;28;20379;-64
2024/03/29 12:57:26;;;;;;;4.72;1.38;;;16.60;59.70;;;;;;5029510;28;20063;-65
2024/03/29 13:00:15;;;;;;;5.60;1.77;;;16.70;59.60;;;;;;5025789;28;20117;-65
2024/03/29 13:03:03;;;;;;;5.05;1.23;;;16.90;59.70;;;;;;5028480;28;20431;-65
2024/03/29 13:05:53;;;;;;;4.55;1.50;;;17.10;59.70;;;;;;5029051;28;20291;-64
2024/03/29 13:08:38;;;;;;;2.72;1.67;;;17.30;59.70;;;;;;5040574;28;20248;-65
2024/03/29 13:11:25;;;;;;;6.65;1.50;;;17.40;59.60;;;;;;5033794;28;20060;-66
2024/03/29 13:14:16;;;;;;;2.95;1.05;;;17.50;59.60;;;;;;5050720;28;20067;-66
2024/03/29 13:17:03;;;;;;;4.15;1.17;;;17.50;60.00;;;;;;5049142;28;20121;-64
2024/03/29 13:19:48;;;;;;;3.20;1.00;;;17.50;59.20;;;;;;5058677;28;20110;-65
2024/03/29 13:22:32;;;;;;;6.65;1.50;;;17.50;59.10;;;;;;5034275;28;20432;-65
2024/03/29 13:25:18;;;;;;;3.67;1.25;;;17.50;59.10;;;;;;5026895;28;20047;-65
2024/03/29 13:28:03;;;;;;;5.47;1.35;;;17.40;58.90;;;;;;5030147;28;20083;-72
2024/03/29 13:30:50;;;;;;;4.68;1.15;;;17.40;58.90;;;;;;5049856;28;20232;-72
2024/03/29 13:33:34;;;;;;;4.30;1.08;;;17.30;58.80;;;;;;5027277;28;20064;-66
2024/03/29 13:36:22;;;;;;;5.50;1.30;;;17.20;58.80;;;;;;5038109;28;20156;-71
2024/03/29 13:39:10;;;;;;;7.07;1.45;;;17.10;58.70;;;;;;5040778;28;20055;-68
2024/03/29 13:41:56;;;;;;;6.38;1.90;;;17.20;58.90;;;;;;5042200;28;20071;-70
2024/03/29 13:44:40;;;;;;;5.65;1.40;;;17.30;58.90;;;;;;5036797;28;20107;-67
2024/03/29 13:47:25;;;;;;;5.75;1.50;;;17.40;58.80;;;;;;5044092;28;20732;-69
2024/03/29 13:50:11;;;;;;;3.67;1.20;;;17.50;58.80;;;;;;5036523;28;20059;-70
2024/03/29 13:52:55;;;;;;;2.22;1.10;;;17.60;58.90;;;;;;5027553;28;20047;-68
2024/03/29 13:55:40;;;;;;;6.18;1.48;;;17.60;58.80;;;;;;5037258;28;20184;-70
2024/03/29 13:58:27;;;;;;;4.38;1.40;;;17.60;58.70;;;;;;5019088;28;20198;-67
2024/03/29 14:01:12;;;;;;;4.05;1.23;;;17.60;58.70;;;;;;5033059;28;20122;-68
2024/03/29 14:03:56;;;;;;;4.97;1.10;;;17.60;58.80;;;;;;5029243;28;20052;-68
2024/03/29 14:06:42;;;;;;;3.65;1.70;;;17.60;58.70;;;;;;5027556;28;20060;-68
2024/03/29 14:09:27;;;;;;;4.65;1.25;;;17.60;58.70;;;;;;5024834;28;20407;-69
2024/03/29 14:12:14;;;;;;;4.30;1.23;;;17.60;58.70;;;;;;5023629;28;20063;-68
2024/03/29 14:15:02;;;;;;;2.97;1.20;;;17.60;58.80;;;;;;5065814;28;20403;-67
2024/03/29 14:17:47;;;;;;;3.08;1.50;;;17.60;58.70;;;;;;5034563;28;20350;-67
2024/03/29 14:20:31;;;;;;;3.05;1.20;;;17.70;58.90;;;;;;5038859;28;20106;-66
2024/03/29 14:23:19;;;;;;;4.43;1.70;;;17.90;59.00;;;;;;5031753;28;20035;-66
2024/03/29 14:26:03;;;;;;;2.28;0.93;;;18.00;59.00;;;;;;5049862;28;20119;-66
2024/03/29 14:28:48;;;;;;;3.15;1.10;;;18.20;59.20;;;;;;5037671;28;20032;-65
2024/03/29 14:31:33;;;;;;;5.22;1.40;;;18.30;59.20;;;;;;5034707;28;20422;-67
2024/03/29 14:34:17;;;;;;;5.22;1.17;;;18.40;59.20;;;;;;5023790;28;20360;-66